createdAt,value
2023-04-27T00:01:55.443Z,57.96
2023-04-27T00:03:58.396Z,57.53
2023-04-27T00:06:02.587Z,57.61
2023-04-27T00:08:05.575Z,57.99
2023-04-27T00:10:09.570Z,57.89
2023-04-27T00:12:12.165Z,58.14
2023-04-27T00:14:14.717Z,58.57
2023-04-27T00:16:17.366Z,58.81
2023-04-27T00:18:20.062Z,58.19
2023-04-27T00:20:22.598Z,58.27
2023-04-27T00:22:26.498Z,58.25
2023-04-27T00:24:29.050Z,58.66
2023-04-27T00:26:31.683Z,58.28
2023-04-27T00:28:34.266Z,58.75
2023-04-27T00:30:39.542Z,58.91
2023-04-27T00:32:42.549Z,59.19
2023-04-27T00:34:45.270Z,59.37
2023-04-27T00:36:50.137Z,59.42
2023-04-27T00:38:54.114Z,59.76
2023-04-27T00:41:02.388Z,59.91
2023-04-27T00:43:05.193Z,59.77
2023-04-27T00:45:08.908Z,59.46
2023-04-27T00:47:11.969Z,59.66
2023-04-27T00:49:14.798Z,59.97
2023-04-27T00:51:17.820Z,59.92
2023-04-27T00:53:20.787Z,60.32
2023-04-27T00:55:24.818Z,59.84
2023-04-27T00:57:27.382Z,60.01
2023-04-27T00:59:30.203Z,60.40
2023-04-27T01:01:33.297Z,60.33
2023-04-27T01:03:36.267Z,60.02
2023-04-27T01:05:39.968Z,59.73
2023-04-27T01:07:42.633Z,60.17
2023-04-27T01:09:45.222Z,60.44
2023-04-27T01:11:49.090Z,61.12
2023-04-27T01:13:52.361Z,61.61
2023-04-27T01:15:54.982Z,61.42
2023-04-27T01:18:01.387Z,61.61
2023-04-27T01:20:07.516Z,61.51
2023-04-27T01:22:10.326Z,61.62
2023-04-27T01:24:14.265Z,62.06
2023-04-27T01:26:16.930Z,61.77
2023-04-27T01:28:19.482Z,61.95
2023-04-27T01:30:22.558Z,61.78
2023-04-27T01:32:25.173Z,62.23
2023-04-27T01:34:27.906Z,62.62
2023-04-27T01:36:31.822Z,62.70
2023-04-27T01:38:35.058Z,62.97
2023-04-27T01:40:39.216Z,62.32
2023-04-27T01:42:42.097Z,62.59
2023-04-27T01:44:44.808Z,63.30
2023-04-27T01:46:47.502Z,62.93
2023-04-27T01:48:50.073Z,62.79
2023-04-27T01:50:52.818Z,63.37
2023-04-27T01:52:55.695Z,62.92
2023-04-27T01:54:58.393Z,63.22
2023-04-27T01:57:02.661Z,63.36
2023-04-27T01:59:05.248Z,63.69
2023-04-27T02:01:07.799Z,63.63
2023-04-27T02:03:10.461Z,63.86
2023-04-27T02:05:13.141Z,63.76
2023-04-27T02:07:15.893Z,63.28
2023-04-27T02:09:18.552Z,63.82
2023-04-27T02:11:21.617Z,63.47
2023-04-27T02:13:25.588Z,63.45
2023-04-27T02:15:28.205Z,63.01
2023-04-27T02:17:31.301Z,63.19
2023-04-27T02:19:33.908Z,62.60
2023-04-27T02:21:37.041Z,62.37
2023-04-27T02:23:39.631Z,62.40
2023-04-27T02:25:46.392Z,62.17
2023-04-27T02:27:49.137Z,62.19
2023-04-27T02:29:53.753Z,62.44
2023-04-27T02:31:56.877Z,62.06
2023-04-27T02:33:59.480Z,62.60
2023-04-27T02:36:02.080Z,62.25
2023-04-27T02:38:04.645Z,62.47
2023-04-27T02:40:09.457Z,62.84
2023-04-27T02:42:12.035Z,62.62
2023-04-27T02:44:14.695Z,62.44
2023-04-27T02:46:18.627Z,62.22
2023-04-27T02:48:21.298Z,62.38
2023-04-27T02:50:23.853Z,62.27
2023-04-27T02:52:26.411Z,62.88
2023-04-27T02:54:28.957Z,63.15
2023-04-27T02:56:31.559Z,63.11
2023-04-27T02:58:34.855Z,63.36
2023-04-27T03:00:37.400Z,63.75
2023-04-27T03:02:41.500Z,63.74
2023-04-27T03:04:44.572Z,63.95
2023-04-27T03:06:47.235Z,63.66
2023-04-27T03:08:49.914Z,63.93
2023-04-27T03:10:52.463Z,63.93
2023-04-27T03:12:55.011Z,63.99
2023-04-27T03:14:57.552Z,63.62
2023-04-27T03:17:00.131Z,63.56
2023-04-27T03:19:04.080Z,63.45
2023-04-27T03:21:10.668Z,63.66
2023-04-27T03:23:13.263Z,63.38
2023-04-27T03:25:15.905Z,63.08
2023-04-27T03:27:18.536Z,63.26
2023-04-27T03:29:21.161Z,63.69
2023-04-27T03:31:23.771Z,63.73
2023-04-27T03:33:27.061Z,63.96
2023-04-27T03:35:30.953Z,64.15
2023-04-27T03:37:34.260Z,64.03
2023-04-27T03:39:36.809Z,64.36
2023-04-27T03:41:39.383Z,64.60
2023-04-27T03:43:41.926Z,64.21
2023-04-27T03:45:44.504Z,64.59
2023-04-27T03:47:47.113Z,64.18
2023-04-27T03:49:49.779Z,64.32
2023-04-27T03:51:53.678Z,64.65
2023-04-27T03:53:56.405Z,64.54
2023-04-27T03:55:58.971Z,64.18
2023-04-27T03:58:01.512Z,64.41
2023-04-27T04:00:07.246Z,64.24
2023-04-27T04:02:10.203Z,64.72
2023-04-27T04:04:13.041Z,64.71
2023-04-27T04:06:15.762Z,64.83
2023-04-27T04:08:19.772Z,64.19
2023-04-27T04:10:22.338Z,64.13
2023-04-27T04:12:24.919Z,64.59
2023-04-27T04:14:28.721Z,64.89
2023-04-27T04:16:31.321Z,64.88
2023-04-27T04:18:34.049Z,64.76
2023-04-27T04:20:36.928Z,64.83
2023-04-27T04:22:39.811Z,64.67
2023-04-27T04:24:43.752Z,64.14
2023-04-27T04:26:47.173Z,64.13
2023-04-27T04:28:49.765Z,64.11
2023-04-27T04:30:52.541Z,63.84
2023-04-27T04:32:55.251Z,63.83
2023-04-27T04:34:57.961Z,63.58
2023-04-27T04:37:00.564Z,63.89
2023-04-27T04:39:03.491Z,64.02
2023-04-27T04:41:08.100Z,63.86
2023-04-27T04:43:11.079Z,63.82
2023-04-27T04:45:14.059Z,63.87
2023-04-27T04:47:17.724Z,63.97
2023-04-27T04:49:20.374Z,63.92
2023-04-27T04:51:22.993Z,64.44
2023-04-27T04:53:26.180Z,64.35
2023-04-27T04:55:29.113Z,64.25
2023-04-27T04:57:33.036Z,63.77
2023-04-27T04:59:35.986Z,63.84
2023-04-27T05:01:38.628Z,62.98
2023-04-27T05:03:41.400Z,63.14
2023-04-27T05:05:44.078Z,63.24
2023-04-27T05:07:46.736Z,63.14
2023-04-27T05:09:49.372Z,62.52
2023-04-27T05:11:51.960Z,62.64
2023-04-27T05:13:55.937Z,62.02
2023-04-27T05:15:58.569Z,61.98
2023-04-27T05:18:01.202Z,62.53
2023-04-27T05:20:04.882Z,62.39
2023-04-27T05:22:07.472Z,62.66
2023-04-27T05:24:10.034Z,62.47
2023-04-27T05:26:13.541Z,62.24
2023-04-27T05:28:16.267Z,62.26
2023-04-27T05:30:20.199Z,61.94
2023-04-27T05:32:22.760Z,62.15
2023-04-27T05:34:25.543Z,62.39
2023-04-27T05:36:28.533Z,62.09
2023-04-27T05:38:31.564Z,62.30
2023-04-27T05:40:34.127Z,62.21
2023-04-27T05:42:37.057Z,62.02
2023-04-27T05:44:39.615Z,61.65
2023-04-27T05:46:43.541Z,61.03
2023-04-27T05:48:46.148Z,59.54
2023-04-27T05:50:48.692Z,60.34
2023-04-27T05:52:51.236Z,60.80
2023-04-27T05:54:53.778Z,61.36
2023-04-27T05:56:56.437Z,62.48
2023-04-27T05:59:01.149Z,63.23
2023-04-27T06:01:05.256Z,63.95
2023-04-27T06:03:09.217Z,64.23
2023-04-27T06:05:12.065Z,64.15
2023-04-27T06:07:16.439Z,64.02
2023-04-27T06:09:19.082Z,63.28
2023-04-27T06:11:22.075Z,63.46
2023-04-27T06:13:24.629Z,62.82
2023-04-27T06:15:27.197Z,63.18
2023-04-27T06:17:29.757Z,62.67
2023-04-27T06:19:33.816Z,63.01
2023-04-27T06:21:36.654Z,62.57
2023-04-27T06:23:41.633Z,62.40
2023-04-27T06:25:44.233Z,62.90
2023-04-27T06:27:47.430Z,62.74
2023-04-27T06:29:50.020Z,62.97
2023-04-27T06:31:52.648Z,63.37
2023-04-27T06:33:55.287Z,63.22
2023-04-27T06:35:59.349Z,63.51
2023-04-27T06:38:01.920Z,62.89
2023-04-27T06:40:05.071Z,62.69
2023-04-27T06:42:07.655Z,62.72
2023-04-27T06:44:10.211Z,62.82
2023-04-27T06:46:15.558Z,62.68
2023-04-27T06:48:18.337Z,62.53
2023-04-27T06:50:21.191Z,62.03
2023-04-27T06:52:25.108Z,61.73
2023-04-27T06:54:27.866Z,62.03
2023-04-27T06:56:30.511Z,61.47
2023-04-27T06:58:33.095Z,60.88
2023-04-27T07:00:35.779Z,60.72
2023-04-27T07:02:38.453Z,60.77
2023-04-27T07:04:41.570Z,60.38
2023-04-27T07:06:44.133Z,59.46
2023-04-27T07:08:48.065Z,59.51
2023-04-27T07:10:51.068Z,58.89
2023-04-27T07:12:53.618Z,58.94
2023-04-27T07:14:56.337Z,58.09
2023-04-27T07:16:58.948Z,58.09
2023-04-27T07:19:01.591Z,57.89
2023-04-27T07:21:04.333Z,57.30
2023-04-27T07:23:07.162Z,57.09
2023-04-27T07:25:11.474Z,57.49
2023-04-27T07:27:14.988Z,57.38
2023-04-27T07:29:26.310Z,57.05
2023-04-27T07:31:29.921Z,56.92
2023-04-27T07:33:32.888Z,56.64
2023-04-27T07:35:35.530Z,56.22
2023-04-27T07:37:38.392Z,53.54
2023-04-27T07:39:41.008Z,52.92
2023-04-27T07:41:44.923Z,53.38
2023-04-27T07:43:48.300Z,53.36
2023-04-27T07:45:50.913Z,53.29
2023-04-27T07:47:53.583Z,53.42
2023-04-27T07:49:56.379Z,53.57
2023-04-27T07:51:59.090Z,54.21
2023-04-27T07:54:02.169Z,54.34
2023-04-27T07:56:06.949Z,53.67
2023-04-27T07:58:11.225Z,53.80
2023-04-27T08:00:14.481Z,53.86
2023-04-27T08:02:20.088Z,53.85
2023-04-27T08:04:23.494Z,54.02
2023-04-27T08:06:28.768Z,54.09
2023-04-27T08:08:32.131Z,53.95
2023-04-27T08:10:34.741Z,52.84
2023-04-27T08:12:37.398Z,53.18
2023-04-27T08:14:41.364Z,53.11
2023-04-27T08:16:44.895Z,53.01
2023-04-27T08:18:47.472Z,53.57
2023-04-27T08:20:50.065Z,53.23
2023-04-27T08:22:52.824Z,52.98
2023-04-27T08:24:55.539Z,52.55
2023-04-27T08:26:58.112Z,52.11
2023-04-27T08:29:04.760Z,52.31
2023-04-27T08:31:12.943Z,52.64
2023-04-27T08:33:15.750Z,53.07
2023-04-27T08:35:18.601Z,53.67
2023-04-27T08:37:21.821Z,53.92
2023-04-27T08:39:25.494Z,53.63
2023-04-27T08:41:28.078Z,53.69
2023-04-27T08:43:35.257Z,53.82
2023-04-27T08:45:38.035Z,53.68
2023-04-27T08:47:43.896Z,53.64
2023-04-27T08:49:46.863Z,51.22
2023-04-27T08:51:49.428Z,51.16
2023-04-27T08:53:53.850Z,51.28
2023-04-27T08:55:59.586Z,51.31
2023-04-27T08:58:03.188Z,51.91
2023-04-27T09:00:12.549Z,52.44
2023-04-27T09:02:21.750Z,52.54
2023-04-27T09:04:25.897Z,52.10
2023-04-27T09:06:32.633Z,51.87
2023-04-27T09:08:46.331Z,51.54
2023-04-27T09:10:51.008Z,51.42
2023-04-27T09:13:01.045Z,50.60
2023-04-27T09:15:06.188Z,50.82
2023-04-27T09:17:08.808Z,50.17
2023-04-27T09:19:11.916Z,49.68
2023-04-27T09:21:23.458Z,49.22
2023-04-27T09:23:30.388Z,49.61
2023-04-27T09:25:34.117Z,46.53
2023-04-27T09:27:39.086Z,46.58
2023-04-27T09:29:41.626Z,46.03
2023-04-27T09:31:44.264Z,45.74
2023-04-27T09:33:47.537Z,46.31
2023-04-27T09:35:50.710Z,47.14
2023-04-27T09:37:55.589Z,47.38
2023-04-27T09:39:58.645Z,47.71
2023-04-27T09:42:01.835Z,46.96
2023-04-27T09:44:05.073Z,47.37
2023-04-27T09:46:08.097Z,46.83
2023-04-27T09:48:11.430Z,47.32
2023-04-27T09:50:15.017Z,47.49
2023-04-27T09:52:17.567Z,46.07
2023-04-27T09:54:26.013Z,46.21
2023-04-27T09:56:39.895Z,46.13
2023-04-27T09:58:55.104Z,46.20
2023-04-27T10:01:05.839Z,46.53
2023-04-27T10:03:25.440Z,46.17
2023-04-27T10:05:43.444Z,45.44
2023-04-27T10:07:46.695Z,45.58
2023-04-27T10:09:51.777Z,45.90
2023-04-27T10:11:56.157Z,46.43
2023-04-27T10:13:58.733Z,45.99
2023-04-27T10:16:17.015Z,46.66
2023-04-27T10:18:31.601Z,45.82
2023-04-27T10:20:38.864Z,46.41
2023-04-27T10:22:42.907Z,46.52
2023-04-27T10:24:51.696Z,46.78
2023-04-27T10:26:54.277Z,46.76
2023-04-27T10:28:58.492Z,46.86
2023-04-27T10:31:11.162Z,47.66
2023-04-27T10:33:18.035Z,48.27
2023-04-27T10:35:22.162Z,46.95
2023-04-27T10:37:27.533Z,46.94
2023-04-27T10:39:47.046Z,47.62
2023-04-27T10:41:53.863Z,46.11
2023-04-27T10:43:56.422Z,46.49
2023-04-27T10:46:08.811Z,45.43
2023-04-27T10:48:14.330Z,44.15
2023-04-27T10:50:18.480Z,44.88
2023-04-27T10:52:21.186Z,44.78
2023-04-27T10:54:28.106Z,45.26
2023-04-27T10:56:30.715Z,46.47
2023-04-27T11:00:44.995Z,46.99
2023-04-27T11:02:47.754Z,46.42
2023-04-27T11:04:50.552Z,45.94
2023-04-27T11:06:54.721Z,45.94
2023-04-27T11:08:57.649Z,45.37
2023-04-27T11:11:00.282Z,44.73
2023-04-27T11:13:11.255Z,44.29
2023-04-27T11:15:15.417Z,45.07
2023-04-27T11:17:17.989Z,45.35
2023-04-27T11:19:20.580Z,45.52
2023-04-27T11:21:23.821Z,45.03
2023-04-27T11:23:28.808Z,44.29
2023-04-27T11:25:31.541Z,42.93
2023-04-27T11:27:38.623Z,43.47
2023-04-27T11:29:41.669Z,44.22
2023-04-27T11:31:49.186Z,43.98
2023-04-27T11:33:52.314Z,44.69
2023-04-27T11:35:56.375Z,45.81
2023-04-27T11:37:59.512Z,43.50
2023-04-27T11:40:02.515Z,42.80
2023-04-27T11:42:19.454Z,42.65
2023-04-27T11:44:27.895Z,42.37
2023-04-27T11:46:30.820Z,42.84
2023-04-27T11:48:37.531Z,43.49
2023-04-27T11:50:40.506Z,43.75
2023-04-27T11:52:43.058Z,43.53
2023-04-27T11:54:50.762Z,40.01
2023-04-27T11:56:53.350Z,40.29
2023-04-27T11:58:55.911Z,41.55
2023-04-27T12:00:58.674Z,39.88
2023-04-27T12:03:01.446Z,40.69
2023-04-27T12:05:07.599Z,41.46
2023-04-27T12:07:12.190Z,42.27
2023-04-27T12:09:14.780Z,42.22
2023-04-27T12:11:17.351Z,41.06
2023-04-27T12:13:19.916Z,41.43
2023-04-27T12:15:22.598Z,42.27
2023-04-27T12:17:25.165Z,42.31
2023-04-27T12:19:27.968Z,42.03
2023-04-27T12:21:32.158Z,42.46
2023-04-27T12:23:34.802Z,41.62
2023-04-27T12:25:37.575Z,41.00
2023-04-27T12:27:40.187Z,41.68
2023-04-27T12:29:42.869Z,42.49
2023-04-27T12:31:45.642Z,42.56
2023-04-27T12:33:49.206Z,42.53
2023-04-27T12:35:52.033Z,42.86
2023-04-27T12:37:55.918Z,43.21
2023-04-27T12:39:58.632Z,42.98
2023-04-27T12:42:03.727Z,42.97
2023-04-27T12:44:06.573Z,43.17
2023-04-27T12:46:09.239Z,43.51
2023-04-27T12:48:11.856Z,43.31
2023-04-27T12:50:15.705Z,43.27
2023-04-27T12:52:18.718Z,43.57
2023-04-27T12:54:22.604Z,41.39
2023-04-27T12:56:25.217Z,42.20
2023-04-27T12:58:27.808Z,41.13
2023-04-27T13:00:30.480Z,41.67
2023-04-27T13:02:34.069Z,42.39
2023-04-27T13:04:37.220Z,41.55
2023-04-27T13:06:39.976Z,40.96
2023-04-27T13:08:45.513Z,42.14
2023-04-27T13:10:49.415Z,41.58
2023-04-27T13:12:52.051Z,41.96
2023-04-27T13:14:54.625Z,41.76
2023-04-27T13:16:57.649Z,41.37
2023-04-27T13:19:00.221Z,40.13
2023-04-27T13:21:04.058Z,39.04
2023-04-27T13:23:06.951Z,38.22
2023-04-27T13:25:10.613Z,38.28
2023-04-27T13:27:14.494Z,38.43
2023-04-27T13:29:17.878Z,36.05
2023-04-27T13:31:20.613Z,35.83
2023-04-27T13:33:23.954Z,36.40
2023-04-27T13:35:26.819Z,33.58
2023-04-27T13:37:29.391Z,33.04
2023-04-27T13:39:32.855Z,34.38
2023-04-27T13:41:36.045Z,34.29
2023-04-27T13:43:40.156Z,34.38
2023-04-27T13:45:43.095Z,32.94
2023-04-27T13:47:45.699Z,33.13
2023-04-27T13:49:48.244Z,32.27
2023-04-27T13:51:50.855Z,33.30
2023-04-27T13:53:53.411Z,34.19
2023-04-27T13:55:57.069Z,33.12
2023-04-27T13:57:59.766Z,33.97
2023-04-27T14:00:03.805Z,32.52
2023-04-27T14:02:06.370Z,32.48
2023-04-27T14:04:09.346Z,31.88
2023-04-27T14:06:11.985Z,32.17
2023-04-27T14:08:14.566Z,32.80
2023-04-27T14:10:17.614Z,32.51
2023-04-27T14:12:20.560Z,32.98
2023-04-27T14:14:23.183Z,33.67
2023-04-27T14:16:27.387Z,32.51
2023-04-27T14:18:32.443Z,33.97
2023-04-27T14:20:35.832Z,34.59
2023-04-27T14:22:38.420Z,34.24
2023-04-27T14:24:41.145Z,34.79
2023-04-27T14:26:47.674Z,34.27
2023-04-27T14:28:50.977Z,35.04
2023-04-27T14:30:53.633Z,35.02
2023-04-27T14:32:57.620Z,35.14
2023-04-27T14:35:03.544Z,35.60
2023-04-27T14:37:06.563Z,35.56
2023-04-27T14:39:09.677Z,35.57
2023-04-27T14:41:12.237Z,35.28
2023-04-27T14:43:14.784Z,35.11
2023-04-27T14:45:18.154Z,35.55
2023-04-27T14:47:20.876Z,35.99
2023-04-27T14:49:24.880Z,36.73
2023-04-27T14:51:28.759Z,37.10
2023-04-27T14:53:31.406Z,37.44
2023-04-27T14:55:33.951Z,37.85
2023-04-27T14:57:37.475Z,38.44
2023-04-27T14:59:40.093Z,38.50
2023-04-27T15:01:42.686Z,38.68
2023-04-27T15:03:48.312Z,38.79
2023-04-27T15:05:52.514Z,38.26
2023-04-27T15:07:55.102Z,38.73
2023-04-27T15:09:57.672Z,38.35
2023-04-27T15:12:00.239Z,38.09
2023-04-27T15:14:02.800Z,36.98
2023-04-27T15:16:07.202Z,37.06
2023-04-27T15:18:09.900Z,37.12
2023-04-27T15:20:14.022Z,36.14
2023-04-27T15:22:17.981Z,36.77
2023-04-27T15:24:20.580Z,37.50
2023-04-27T15:26:23.144Z,37.10
2023-04-27T15:28:26.312Z,36.35
2023-04-27T15:30:28.886Z,35.89
2023-04-27T15:32:31.560Z,35.35
2023-04-27T15:34:34.167Z,36.33
2023-04-27T15:36:36.714Z,36.71
2023-04-27T15:38:40.786Z,37.01
2023-04-27T15:40:43.358Z,36.62
2023-04-27T15:42:45.960Z,37.20
2023-04-27T15:44:48.812Z,36.98
2023-04-27T15:46:51.388Z,37.22
2023-04-27T15:48:53.964Z,37.09
2023-04-27T15:50:56.542Z,37.79
2023-04-27T15:52:59.105Z,37.91
2023-04-27T15:55:04.212Z,37.54
2023-04-27T15:57:06.800Z,38.08
2023-04-27T15:59:09.456Z,37.38
2023-04-27T16:01:12.061Z,37.56
2023-04-27T16:03:15.019Z,37.55
2023-04-27T16:05:18.023Z,38.50
2023-04-27T16:07:20.596Z,38.42
2023-04-27T16:09:23.987Z,38.82
2023-04-27T16:11:27.954Z,39.00
2023-04-27T16:13:30.528Z,39.64
2023-04-27T16:15:33.113Z,39.74
2023-04-27T16:17:36.798Z,39.11
2023-04-27T16:19:39.361Z,38.98
2023-04-27T16:21:41.940Z,39.67
2023-04-27T16:23:44.712Z,39.71
2023-04-27T16:25:47.415Z,40.17
2023-04-27T16:27:52.284Z,39.96
2023-04-27T16:29:54.834Z,40.25
2023-04-27T16:31:57.848Z,40.38
2023-04-27T16:34:00.542Z,39.73
2023-04-27T16:36:03.121Z,39.63
2023-04-27T16:38:06.018Z,38.65
2023-04-27T16:40:09.666Z,38.03
2023-04-27T16:42:13.367Z,38.47
2023-04-27T16:44:17.428Z,38.51
2023-04-27T16:46:20.007Z,38.63
2023-04-27T16:48:22.690Z,38.64
2023-04-27T16:50:25.486Z,38.75
2023-04-27T16:52:28.126Z,37.77
2023-04-27T16:54:30.705Z,38.00
2023-04-27T16:56:36.658Z,38.12
2023-04-27T16:58:39.201Z,38.62
2023-04-27T17:00:43.122Z,39.30
2023-04-27T17:02:45.820Z,39.62
2023-04-27T17:04:48.555Z,40.32
2023-04-27T17:06:51.183Z,40.45
2023-04-27T17:08:53.817Z,40.50
2023-04-27T17:10:56.423Z,40.71
2023-04-27T17:12:59.019Z,40.76
2023-04-27T17:15:01.578Z,40.71
2023-04-27T17:17:06.712Z,40.59
2023-04-27T17:19:09.312Z,41.01
2023-04-27T17:21:11.987Z,41.04
2023-04-27T17:23:14.520Z,41.69
2023-04-27T17:25:17.265Z,42.18
2023-04-27T17:27:19.978Z,41.66
2023-04-27T17:29:22.539Z,41.04
2023-04-27T17:31:25.171Z,40.78
2023-04-27T17:33:29.183Z,40.87
2023-04-27T17:35:31.784Z,40.79
2023-04-27T17:37:34.328Z,40.76
2023-04-27T17:39:37.705Z,41.28
2023-04-27T17:41:40.363Z,41.88
2023-04-27T17:43:42.944Z,42.69
2023-04-27T17:45:45.766Z,43.30
2023-04-27T17:47:48.312Z,43.67
2023-04-27T17:49:52.328Z,44.52
2023-04-27T17:51:55.404Z,45.34
2023-04-27T17:53:57.950Z,47.40
2023-04-27T17:56:00.546Z,47.73
2023-04-27T17:58:08.540Z,47.34
2023-04-27T18:00:12.692Z,47.78
2023-04-27T18:02:15.485Z,47.77
2023-04-27T18:04:18.241Z,47.99
2023-04-27T18:06:22.467Z,48.91
2023-04-27T18:08:25.044Z,48.78
2023-04-27T18:10:27.596Z,49.26
2023-04-27T18:12:30.160Z,49.51
2023-04-27T18:14:32.791Z,50.08
2023-04-27T18:16:35.485Z,50.97
2023-04-27T18:18:39.178Z,52.23
2023-04-27T18:20:44.757Z,52.69
2023-04-27T18:22:49.120Z,52.45
2023-04-27T18:24:51.711Z,51.82
2023-04-27T18:26:54.268Z,52.12
2023-04-27T18:28:58.550Z,52.06
2023-04-27T18:31:01.207Z,52.12
2023-04-27T18:33:05.322Z,52.66
2023-04-27T18:35:08.788Z,53.05
2023-04-27T18:37:11.716Z,53.26
2023-04-27T18:39:16.007Z,53.54
2023-04-27T18:41:18.750Z,53.70
2023-04-27T18:43:21.326Z,53.85
2023-04-27T18:45:23.963Z,53.86
2023-04-27T18:47:26.637Z,53.81
2023-04-27T18:49:29.249Z,53.73
2023-04-27T18:51:32.206Z,53.57
2023-04-27T18:53:34.976Z,53.63
2023-04-27T18:55:39.456Z,53.76
2023-04-27T18:57:42.049Z,53.79
2023-04-27T18:59:44.643Z,54.10
2023-04-27T19:01:47.345Z,54.38
2023-04-27T19:03:50.442Z,54.50
2023-04-27T19:05:53.363Z,54.24
2023-04-27T19:07:56.034Z,54.56
2023-04-27T19:09:58.610Z,54.75
2023-04-27T19:12:03.829Z,55.28
2023-04-27T19:14:06.487Z,55.56
2023-04-27T19:16:09.576Z,54.66
2023-04-27T19:18:12.210Z,54.55
2023-04-27T19:20:14.801Z,54.25
2023-04-27T19:22:17.353Z,54.75
2023-04-27T19:24:19.991Z,54.80
2023-04-27T19:26:22.736Z,55.27
2023-04-27T19:28:27.031Z,55.12
2023-04-27T19:30:29.640Z,55.56
2023-04-27T19:32:34.211Z,55.85
2023-04-27T19:34:36.873Z,56.00
2023-04-27T19:36:39.442Z,55.75
2023-04-27T19:38:42.037Z,56.48
2023-04-27T19:40:44.820Z,56.54
2023-04-27T19:42:47.358Z,56.49
2023-04-27T19:44:51.308Z,56.47
2023-04-27T19:46:53.865Z,56.65
2023-04-27T19:48:56.477Z,56.80
2023-04-27T19:50:59.062Z,56.59
2023-04-27T19:53:01.629Z,57.19
2023-04-27T19:55:04.519Z,57.11
2023-04-27T19:57:07.134Z,56.73
2023-04-27T19:59:09.685Z,57.07
2023-04-27T20:01:13.719Z,57.38
2023-04-27T20:03:17.299Z,56.93
2023-04-27T20:05:20.362Z,57.25
2023-04-27T20:07:23.581Z,57.45
2023-04-27T20:09:26.182Z,57.45
2023-04-27T20:11:28.756Z,58.22
2023-04-27T20:13:31.484Z,58.42
2023-04-27T20:15:34.154Z,57.85
2023-04-27T20:17:38.102Z,57.76
2023-04-27T20:19:42.560Z,57.96
2023-04-27T20:21:45.461Z,58.02
2023-04-27T20:23:48.829Z,58.11
2023-04-27T20:25:51.589Z,58.04
2023-04-27T20:27:54.164Z,58.32
2023-04-27T20:29:56.809Z,58.35
2023-04-27T20:31:59.446Z,58.71
2023-04-27T20:34:03.554Z,58.81
2023-04-27T20:36:16.095Z,58.89
2023-04-27T20:38:20.218Z,58.68
2023-04-27T20:40:22.822Z,58.77
2023-04-27T20:42:25.479Z,58.83
2023-04-27T20:44:28.035Z,58.59
2023-04-27T20:46:31.170Z,58.78
2023-04-27T20:48:33.821Z,58.54
2023-04-27T20:50:37.723Z,58.51
2023-04-27T20:52:40.316Z,58.83
2023-04-27T20:54:42.877Z,59.12
2023-04-27T20:56:46.798Z,59.13
2023-04-27T20:58:49.386Z,58.95
2023-04-27T21:00:52.324Z,59.07
2023-04-27T21:02:55.047Z,59.21
2023-04-27T21:04:57.866Z,59.19
2023-04-27T21:07:01.980Z,59.38
2023-04-27T21:09:05.491Z,59.34
2023-04-27T21:11:08.106Z,59.42
2023-04-27T21:13:10.930Z,59.54
2023-04-27T21:15:13.504Z,59.90
2023-04-27T21:17:16.165Z,59.90
2023-04-27T21:19:18.738Z,59.55
2023-04-27T21:21:22.016Z,59.97
2023-04-27T21:23:25.990Z,60.01
2023-04-27T21:25:28.588Z,60.06
2023-04-27T21:27:31.718Z,60.45
2023-04-27T21:29:35.473Z,60.40
2023-04-27T21:31:38.294Z,60.42
2023-04-27T21:33:41.053Z,60.63
2023-04-27T21:35:43.704Z,60.65
2023-04-27T21:37:46.248Z,60.61
2023-04-27T21:39:50.218Z,60.70
2023-04-27T21:41:52.799Z,60.74
2023-04-27T21:43:55.483Z,60.89
2023-04-27T21:45:58.059Z,60.76
2023-04-27T21:48:00.738Z,60.73
2023-04-27T21:50:03.381Z,61.06
2023-04-27T21:52:06.147Z,61.08
2023-04-27T21:54:11.280Z,61.29
2023-04-27T21:56:17.957Z,61.40
2023-04-27T21:58:20.943Z,61.43
2023-04-27T22:00:23.668Z,61.23
2023-04-27T22:02:26.435Z,61.16
2023-04-27T22:04:29.451Z,60.91
2023-04-27T22:06:33.410Z,61.04
2023-04-27T22:08:36.065Z,61.01
2023-04-27T22:10:38.689Z,60.96
2023-04-27T22:12:42.617Z,60.85
2023-04-27T22:14:46.846Z,60.80
2023-04-27T22:16:49.805Z,61.01
2023-04-27T22:18:53.815Z,61.41
2023-04-27T22:20:58.026Z,61.74
2023-04-27T22:23:00.845Z,61.72
2023-04-27T22:25:03.503Z,61.46
2023-04-27T22:27:06.370Z,61.98
2023-04-27T22:29:10.510Z,61.96
2023-04-27T22:31:13.098Z,61.83
2023-04-27T22:33:16.627Z,62.04
2023-04-27T22:35:26.357Z,61.73
2023-04-27T22:37:30.112Z,61.61
2023-04-27T22:39:32.745Z,61.77
2023-04-27T22:41:36.082Z,62.09
2023-04-27T22:43:38.636Z,62.10
2023-04-27T22:45:45.490Z,61.99
2023-04-27T22:47:49.249Z,61.69
2023-04-27T22:49:54.536Z,61.75
2023-04-27T22:51:57.680Z,61.78
2023-04-27T22:54:00.361Z,61.77
2023-04-27T22:56:02.945Z,61.85
2023-04-27T22:58:05.942Z,61.89
2023-04-27T23:00:11.467Z,62.14
2023-04-27T23:02:16.274Z,62.15
2023-04-27T23:04:19.861Z,62.49
2023-04-27T23:06:28.129Z,62.87
2023-04-27T23:08:30.709Z,62.75
2023-04-27T23:10:34.782Z,63.01
2023-04-27T23:12:37.736Z,63.13
2023-04-27T23:14:42.222Z,63.06
2023-04-27T23:16:46.183Z,63.01
2023-04-27T23:18:50.812Z,62.70
2023-04-27T23:20:54.438Z,62.97
2023-04-27T23:22:57.123Z,62.64
2023-04-27T23:24:59.750Z,62.69
2023-04-27T23:27:02.318Z,62.65
2023-04-27T23:29:05.046Z,63.00
2023-04-27T23:31:07.710Z,62.76
2023-04-27T23:33:10.340Z,62.66
2023-04-27T23:35:14.212Z,62.59
2023-04-27T23:37:17.233Z,62.62
2023-04-27T23:39:19.777Z,62.80
2023-04-27T23:41:23.327Z,62.88
2023-04-27T23:43:27.441Z,62.85
2023-04-27T23:45:30.002Z,62.58
2023-04-27T23:47:33.906Z,62.73
2023-04-27T23:49:36.898Z,62.73
2023-04-27T23:51:40.833Z,62.85
2023-04-27T23:53:43.550Z,63.13
2023-04-27T23:55:46.143Z,62.86
2023-04-27T23:57:48.708Z,62.96
2023-04-27T23:59:51.254Z,63.27
